Terminal Aerodrome Forecast
Issued by NWS Charleston, WV

Current Version | Previous Version | Graphics & Text | Print | Product List | Glossary On
Versions: 1 2 3 4 5 6 7 8 9 10 11 12 13 14 15 16 17 18 19 20 21 22
468
FTUS41 KRLX 261731
TAFEKN
TAF
KEKN 261731Z 2618/2718 18006KT P6SM BKN070
     FM261900 24006KT P6SM VCTS BKN050CB
     FM270000 00000KT P6SM BKN050
     FM270700 00000KT 3SM BR BKN050
     FM270900 00000KT 2SM BR FEW001 SCT050
     FM271200 00000KT 3SM BR SCT050
     FM271300 VRB04KT P6SM SCT050=

USA.gov is the U.S. government's official web portal to all federal, state and local government web resources and services.